createdAt,value
2024-01-10T00:01:04.203Z,84.05
2024-01-10T00:03:31.328Z,84.28
2024-01-10T00:05:58.378Z,83.69
2024-01-10T00:08:25.617Z,83.49
2024-01-10T00:10:55.466Z,83.71
2024-01-10T00:13:22.810Z,83.61
2024-01-10T00:15:50.493Z,83.86
2024-01-10T00:18:17.655Z,83.54
2024-01-10T00:20:44.813Z,83.45
2024-01-10T00:23:11.845Z,83.38
2024-01-10T00:25:38.934Z,82.90
2024-01-10T00:28:06.876Z,82.56
2024-01-10T00:30:34.047Z,82.34
2024-01-10T00:33:01.168Z,82.02
2024-01-10T00:35:28.372Z,82.37
2024-01-10T00:37:55.468Z,81.97
2024-01-10T00:40:22.535Z,82.31
2024-01-10T00:42:49.634Z,82.06
2024-01-10T00:45:17.467Z,82.37
2024-01-10T00:47:44.488Z,82.39
2024-01-10T00:50:11.739Z,82.83
2024-01-10T00:52:39.478Z,82.78
2024-01-10T00:55:07.501Z,82.95
2024-01-10T00:57:35.122Z,82.92
2024-01-10T01:00:06.353Z,83.32
2024-01-10T01:02:34.181Z,83.05
2024-01-10T01:05:02.564Z,83.53
2024-01-10T01:07:30.378Z,83.57
2024-01-10T01:09:57.908Z,83.78
2024-01-10T01:12:25.655Z,83.62
2024-01-10T01:14:53.285Z,83.47
2024-01-10T01:17:20.999Z,83.39
2024-01-10T01:19:48.615Z,83.17
2024-01-10T01:22:16.347Z,82.97
2024-01-10T01:24:43.476Z,83.41
2024-01-10T01:27:10.722Z,83.62
2024-01-10T01:29:37.664Z,84.03
2024-01-10T01:32:05.088Z,83.94
2024-01-10T01:34:32.548Z,83.69
2024-01-10T01:37:00.171Z,82.99
2024-01-10T01:39:28.109Z,83.48
2024-01-10T01:41:55.710Z,83.73
2024-01-10T01:44:23.368Z,83.83
2024-01-10T01:46:51.392Z,83.57
2024-01-10T01:49:19.267Z,83.68
2024-01-10T01:51:47.397Z,83.99
2024-01-10T01:54:15.193Z,84.01
2024-01-10T01:56:45.236Z,84.03
2024-01-10T01:59:13.534Z,83.28
2024-01-10T02:01:41.569Z,83.39
2024-01-10T02:04:08.743Z,83.74
2024-01-10T02:06:36.210Z,83.79
2024-01-10T02:09:03.332Z,83.77
2024-01-10T02:11:30.640Z,83.33
2024-01-10T02:13:59.293Z,83.04
2024-01-10T02:16:26.803Z,82.87
2024-01-10T02:18:53.931Z,83.51
2024-01-10T02:21:24.505Z,83.33
2024-01-10T02:23:51.446Z,82.78
2024-01-10T02:26:18.723Z,83.05
2024-01-10T02:28:45.681Z,83.01
2024-01-10T02:31:12.879Z,83.00
2024-01-10T02:33:40.740Z,82.87
2024-01-10T02:36:07.809Z,82.53
2024-01-10T02:38:34.697Z,82.50
2024-01-10T02:41:01.615Z,83.27
2024-01-10T02:43:29.520Z,83.33
2024-01-10T02:45:56.371Z,83.39
2024-01-10T02:48:23.368Z,83.10
2024-01-10T02:50:50.195Z,83.03
2024-01-10T02:53:17.184Z,83.65
2024-01-10T02:55:44.476Z,83.45
2024-01-10T02:58:11.481Z,83.06
2024-01-10T03:00:38.425Z,83.61
2024-01-10T03:03:05.489Z,83.01
2024-01-10T03:05:32.367Z,82.98
2024-01-10T03:07:59.337Z,82.59
2024-01-10T03:10:26.150Z,82.52
2024-01-10T03:12:52.977Z,81.92
2024-01-10T03:15:19.848Z,82.23
2024-01-10T03:17:46.759Z,81.89
2024-01-10T03:20:13.834Z,81.88
2024-01-10T03:22:40.713Z,81.80
2024-01-10T03:25:07.949Z,82.37
2024-01-10T03:27:34.750Z,82.11
2024-01-10T03:30:01.609Z,82.67
2024-01-10T03:32:28.532Z,82.70
2024-01-10T03:34:55.508Z,83.05
2024-01-10T03:37:22.345Z,83.31
2024-01-10T03:39:49.261Z,83.23
2024-01-10T03:42:16.070Z,83.37
2024-01-10T03:44:42.964Z,83.33
2024-01-10T03:47:09.950Z,82.91
2024-01-10T03:49:36.891Z,83.37
2024-01-10T03:52:04.055Z,82.63
2024-01-10T03:54:30.911Z,82.79
2024-01-10T03:56:57.779Z,83.16
2024-01-10T03:59:24.746Z,83.22
2024-01-10T04:01:51.748Z,82.66
2024-01-10T04:04:18.625Z,82.94
2024-01-10T04:06:45.443Z,82.93
2024-01-10T04:09:12.270Z,82.78
2024-01-10T04:11:39.140Z,82.84
2024-01-10T04:14:06.042Z,82.59
2024-01-10T04:16:32.935Z,83.10
2024-01-10T04:18:59.959Z,82.81
2024-01-10T04:21:26.901Z,82.78
2024-01-10T04:23:53.718Z,83.07
2024-01-10T04:26:21.824Z,83.28
2024-01-10T04:28:48.779Z,83.08
2024-01-10T04:31:15.853Z,83.18
2024-01-10T04:33:42.699Z,82.77
2024-01-10T04:36:09.574Z,83.26
2024-01-10T04:38:36.665Z,82.82
2024-01-10T04:41:03.678Z,82.85
2024-01-10T04:43:30.533Z,83.46
2024-01-10T04:45:57.345Z,83.43
2024-01-10T04:48:24.281Z,83.04
2024-01-10T04:50:51.132Z,83.50
2024-01-10T04:53:18.052Z,83.33
2024-01-10T04:55:45.800Z,83.58
2024-01-10T04:58:13.699Z,83.59
2024-01-10T05:00:40.511Z,83.73
2024-01-10T05:03:07.437Z,83.08
2024-01-10T05:05:34.447Z,83.15
2024-01-10T05:08:01.228Z,82.86
2024-01-10T05:10:28.699Z,83.41
2024-01-10T05:12:55.613Z,83.25
2024-01-10T05:15:22.481Z,83.31
2024-01-10T05:17:49.378Z,83.19
2024-01-10T05:20:16.370Z,83.05
2024-01-10T05:22:44.340Z,83.30
2024-01-10T05:25:11.200Z,83.21
2024-01-10T05:27:38.029Z,82.96
2024-01-10T05:30:05.232Z,83.08
2024-01-10T05:32:32.213Z,83.26
2024-01-10T05:34:59.350Z,83.54
2024-01-10T05:37:26.262Z,83.15
2024-01-10T05:39:53.051Z,83.75
2024-01-10T05:42:19.882Z,83.64
2024-01-10T05:44:46.694Z,83.68
2024-01-10T05:47:13.544Z,83.33
2024-01-10T05:49:40.533Z,84.08
2024-01-10T05:52:07.440Z,84.07
2024-01-10T05:54:34.217Z,84.02
2024-01-10T05:57:01.140Z,84.35
2024-01-10T05:59:29.861Z,84.14
2024-01-10T06:01:58.017Z,84.80
2024-01-10T06:04:25.075Z,84.69
2024-01-10T06:06:51.918Z,84.87
2024-01-10T06:09:18.732Z,84.32
2024-01-10T06:11:45.542Z,84.34
2024-01-10T06:14:12.363Z,84.52
2024-01-10T06:16:39.280Z,84.86
2024-01-10T06:19:07.171Z,84.37
2024-01-10T06:21:34.113Z,84.64
2024-01-10T06:24:01.014Z,84.63
2024-01-10T06:26:27.886Z,85.21
2024-01-10T06:28:54.761Z,84.96
2024-01-10T06:31:21.651Z,84.58
2024-01-10T06:33:49.002Z,85.19
2024-01-10T06:36:15.992Z,84.70
2024-01-10T06:38:43.054Z,84.93
2024-01-10T06:41:11.068Z,84.93
2024-01-10T06:43:38.505Z,84.75
2024-01-10T06:46:05.589Z,84.83
2024-01-10T06:48:32.445Z,85.51
2024-01-10T06:51:00.475Z,85.88
2024-01-10T06:53:27.360Z,85.66
2024-01-10T06:55:54.223Z,85.50
2024-01-10T06:58:21.109Z,85.22
2024-01-10T07:00:47.984Z,85.63
2024-01-10T07:03:14.877Z,85.54
2024-01-10T07:05:41.821Z,85.67
2024-01-10T07:08:08.808Z,86.22
2024-01-10T07:10:35.651Z,85.81
2024-01-10T07:13:02.485Z,86.36
2024-01-10T07:15:29.594Z,86.08
2024-01-10T07:17:56.509Z,86.09
2024-01-10T07:20:23.473Z,86.00
2024-01-10T07:22:50.545Z,85.94
2024-01-10T07:25:17.350Z,85.93
2024-01-10T07:27:45.260Z,86.36
2024-01-10T07:30:12.479Z,85.85
2024-01-10T07:32:39.422Z,86.00
2024-01-10T07:35:06.764Z,85.60
2024-01-10T07:37:33.552Z,85.67
2024-01-10T07:40:00.378Z,85.99
2024-01-10T07:42:27.204Z,86.22
2024-01-10T07:44:54.947Z,86.07
2024-01-10T07:47:21.971Z,86.41
2024-01-10T07:49:48.892Z,86.32
2024-01-10T07:52:15.749Z,86.35
2024-01-10T07:54:42.648Z,86.62
2024-01-10T07:57:09.478Z,86.23
2024-01-10T07:59:36.334Z,86.28
2024-01-10T08:02:03.302Z,86.31
2024-01-10T08:04:30.156Z,85.85
2024-01-10T08:06:57.076Z,85.22
2024-01-10T08:09:24.074Z,84.43
2024-01-10T08:11:51.707Z,84.47
2024-01-10T08:14:18.595Z,84.48
2024-01-10T08:16:47.672Z,84.26
2024-01-10T08:19:15.994Z,83.88
2024-01-10T08:21:43.003Z,83.76
2024-01-10T08:24:09.769Z,83.27
2024-01-10T08:26:36.703Z,83.19
2024-01-10T08:29:03.618Z,82.99
2024-01-10T08:31:30.697Z,83.19
2024-01-10T08:33:57.542Z,82.61
2024-01-10T08:36:24.438Z,82.39
2024-01-10T08:38:51.931Z,82.49
2024-01-10T08:41:18.778Z,82.36
2024-01-10T08:43:45.579Z,81.91
2024-01-10T08:46:12.753Z,81.56
2024-01-10T08:48:39.989Z,81.37
2024-01-10T08:51:06.886Z,81.53
2024-01-10T08:53:33.735Z,80.99
2024-01-10T08:56:00.622Z,81.13
2024-01-10T08:58:29.124Z,81.11
2024-01-10T09:00:56.001Z,80.66
2024-01-10T09:03:22.917Z,80.32
2024-01-10T09:05:57.313Z,80.11
2024-01-10T09:08:32.156Z,80.01
2024-01-10T09:10:59.031Z,80.45
2024-01-10T09:13:25.891Z,79.78
2024-01-10T09:15:52.785Z,79.09
2024-01-10T09:18:19.757Z,80.07
2024-01-10T09:20:47.265Z,79.50
2024-01-10T09:23:15.465Z,79.22
2024-01-10T09:25:44.329Z,78.40
2024-01-10T09:28:11.213Z,78.71
2024-01-10T09:30:41.329Z,78.27
2024-01-10T09:33:09.507Z,78.13
2024-01-10T09:35:36.506Z,78.08
2024-01-10T09:38:03.835Z,77.58
2024-01-10T09:40:30.863Z,77.79
2024-01-10T09:42:57.998Z,77.04
2024-01-10T09:45:27.298Z,76.97
2024-01-10T09:47:57.811Z,76.70
2024-01-10T09:50:25.437Z,76.94
2024-01-10T09:52:54.013Z,76.95
2024-01-10T09:55:25.243Z,76.94
2024-01-10T09:57:52.867Z,76.61
2024-01-10T10:00:19.915Z,76.34
2024-01-10T10:02:47.672Z,76.46
2024-01-10T10:05:16.616Z,76.58
2024-01-10T10:07:51.833Z,76.45
2024-01-10T10:10:19.442Z,76.34
2024-01-10T10:12:48.431Z,76.44
2024-01-10T10:15:17.135Z,76.15
2024-01-10T10:17:48.929Z,76.02
2024-01-10T10:20:31.242Z,75.92
2024-01-10T10:23:09.118Z,75.51
2024-01-10T10:25:46.795Z,75.78
2024-01-10T10:28:24.796Z,75.86
2024-01-10T10:30:56.683Z,75.61
2024-01-10T10:33:23.863Z,75.38
2024-01-10T10:35:52.745Z,74.70
2024-01-10T10:38:23.612Z,74.19
2024-01-10T10:40:52.011Z,75.46
2024-01-10T10:43:22.387Z,75.66
2024-01-10T10:45:50.600Z,74.30
2024-01-10T10:48:19.100Z,74.22
2024-01-10T10:51:00.794Z,74.99
2024-01-10T10:53:30.463Z,75.29
2024-01-10T10:55:58.349Z,74.85
2024-01-10T10:58:25.727Z,74.91
2024-01-10T11:00:53.471Z,74.47
2024-01-10T11:03:21.916Z,74.49
2024-01-10T11:05:50.295Z,75.17
2024-01-10T11:08:21.315Z,75.20
2024-01-10T11:10:51.523Z,75.71
2024-01-10T11:13:29.265Z,75.46
2024-01-10T11:16:50.462Z,76.14
2024-01-10T11:19:54.035Z,76.12
2024-01-10T11:22:42.940Z,75.62
2024-01-10T11:25:10.662Z,75.94
2024-01-10T11:27:38.362Z,75.53
2024-01-10T11:30:06.590Z,75.71
2024-01-10T11:32:33.589Z,76.04
2024-01-10T11:35:02.550Z,75.56
2024-01-10T11:37:46.067Z,75.06
2024-01-10T11:40:13.744Z,75.57
2024-01-10T11:42:44.812Z,76.01
2024-01-10T11:45:37.416Z,76.86
2024-01-10T11:48:04.506Z,75.72
2024-01-10T11:50:31.619Z,75.28
2024-01-10T11:52:58.623Z,75.01
2024-01-10T11:55:53.666Z,74.54
2024-01-10T11:58:20.626Z,74.46
2024-01-10T12:00:48.702Z,73.95
2024-01-10T12:03:16.124Z,73.40
2024-01-10T12:05:44.273Z,73.87
2024-01-10T12:08:11.417Z,73.57
2024-01-10T12:10:46.781Z,73.39
2024-01-10T12:13:13.708Z,72.64
2024-01-10T12:15:40.974Z,73.25
2024-01-10T12:18:07.839Z,72.93
2024-01-10T12:20:34.629Z,72.54
2024-01-10T12:23:01.542Z,72.81
2024-01-10T12:25:28.266Z,73.40
2024-01-10T12:27:55.099Z,73.11
2024-01-10T12:30:22.122Z,72.96
2024-01-10T12:32:52.351Z,72.20
2024-01-10T12:35:19.419Z,72.27
2024-01-10T12:37:55.682Z,71.83
2024-01-10T12:40:22.932Z,71.84
2024-01-10T12:42:49.780Z,71.37
2024-01-10T12:45:23.725Z,72.04
2024-01-10T12:47:50.852Z,72.08
2024-01-10T12:50:17.759Z,72.36
2024-01-10T12:52:44.699Z,72.17
2024-01-10T12:55:11.517Z,71.73
2024-01-10T12:57:38.321Z,71.35
2024-01-10T13:00:05.676Z,72.12
2024-01-10T13:02:32.556Z,71.36
2024-01-10T13:04:59.509Z,71.94
2024-01-10T13:07:26.287Z,71.85
2024-01-10T13:09:53.267Z,71.77
2024-01-10T13:12:20.220Z,72.02
2024-01-10T13:14:47.121Z,71.96
2024-01-10T13:17:14.625Z,72.40
2024-01-10T13:19:41.535Z,72.53
2024-01-10T13:22:09.225Z,73.10
2024-01-10T13:24:36.427Z,73.08
2024-01-10T13:27:04.225Z,73.47
2024-01-10T13:29:31.046Z,73.26
2024-01-10T13:31:58.024Z,73.05
2024-01-10T13:34:24.947Z,73.06
2024-01-10T13:36:51.761Z,73.45
2024-01-10T13:39:18.555Z,73.30
2024-01-10T13:41:45.881Z,73.09
2024-01-10T13:44:12.829Z,73.22
2024-01-10T13:46:39.786Z,73.45
2024-01-10T13:49:07.008Z,73.30
2024-01-10T13:51:33.976Z,73.60
2024-01-10T13:54:00.925Z,73.94
2024-01-10T13:56:28.209Z,73.99
2024-01-10T13:58:55.063Z,74.02
2024-01-10T14:01:21.882Z,74.18
2024-01-10T14:03:49.223Z,73.63
2024-01-10T14:06:16.168Z,74.00
2024-01-10T14:08:43.142Z,73.99
2024-01-10T14:11:10.005Z,73.91
2024-01-10T14:13:36.829Z,73.70
2024-01-10T14:16:03.649Z,74.05
2024-01-10T14:18:30.587Z,74.10
2024-01-10T14:20:57.457Z,74.38
2024-01-10T14:23:24.566Z,74.12
2024-01-10T14:25:51.666Z,74.25
2024-01-10T14:28:18.608Z,74.28
2024-01-10T14:30:45.713Z,74.21
2024-01-10T14:33:12.915Z,74.69
2024-01-10T14:35:40.143Z,74.34
2024-01-10T14:38:07.491Z,74.44
2024-01-10T14:40:34.694Z,74.77
2024-01-10T14:43:01.714Z,74.44
2024-01-10T14:45:28.572Z,74.69
2024-01-10T14:47:55.759Z,74.49
2024-01-10T14:50:23.603Z,74.58
2024-01-10T14:52:50.728Z,74.90
2024-01-10T14:55:17.722Z,74.47
2024-01-10T14:57:44.644Z,75.02
2024-01-10T15:00:12.020Z,74.86
2024-01-10T15:02:39.959Z,75.22
2024-01-10T15:05:07.646Z,75.48
2024-01-10T15:07:35.107Z,75.57
2024-01-10T15:10:02.171Z,75.75
2024-01-10T15:12:29.074Z,75.77
2024-01-10T15:14:56.078Z,75.74
2024-01-10T15:17:23.171Z,76.07
2024-01-10T15:19:50.243Z,76.08
2024-01-10T15:22:17.187Z,76.04
2024-01-10T15:24:44.164Z,76.31
2024-01-10T15:27:12.082Z,76.15
2024-01-10T15:29:39.822Z,75.91
2024-01-10T15:32:07.551Z,76.55
2024-01-10T15:34:34.943Z,76.59
2024-01-10T15:37:01.918Z,75.81
2024-01-10T15:39:28.938Z,76.23
2024-01-10T15:41:56.049Z,76.43
2024-01-10T15:44:23.290Z,76.43
2024-01-10T15:46:50.878Z,76.57
2024-01-10T15:49:18.395Z,76.47
2024-01-10T15:51:45.494Z,76.54
2024-01-10T15:54:12.504Z,76.77
2024-01-10T15:56:39.475Z,77.04
2024-01-10T15:59:06.446Z,76.60
2024-01-10T16:01:34.239Z,77.11
2024-01-10T16:04:01.637Z,76.74
2024-01-10T16:06:28.871Z,77.08
2024-01-10T16:08:55.772Z,76.94
2024-01-10T16:11:22.896Z,77.38
2024-01-10T16:13:49.968Z,77.42
2024-01-10T16:16:16.858Z,77.88
2024-01-10T16:18:43.854Z,78.12
2024-01-10T16:21:11.601Z,78.25
2024-01-10T16:23:38.564Z,78.52
2024-01-10T16:26:05.578Z,78.10
2024-01-10T16:28:32.570Z,78.29
2024-01-10T16:30:59.468Z,78.64
2024-01-10T16:33:26.457Z,78.74
2024-01-10T16:35:53.693Z,78.52
2024-01-10T16:38:20.712Z,78.65
2024-01-10T16:40:47.758Z,79.39
2024-01-10T16:43:14.781Z,78.79
2024-01-10T16:45:41.827Z,79.60
2024-01-10T16:48:09.122Z,80.26
2024-01-10T16:50:36.901Z,79.92
2024-01-10T16:53:04.139Z,79.28
2024-01-10T16:55:31.094Z,80.20
2024-01-10T16:57:58.083Z,79.36
2024-01-10T17:00:25.105Z,79.32
2024-01-10T17:02:52.210Z,80.02
2024-01-10T17:05:19.303Z,79.58
2024-01-10T17:07:46.473Z,80.58
2024-01-10T17:10:13.533Z,80.61
2024-01-10T17:12:40.504Z,80.74
2024-01-10T17:15:07.960Z,80.51
2024-01-10T17:17:36.044Z,80.94
2024-01-10T17:20:04.029Z,80.82
2024-01-10T17:22:34.503Z,80.74
2024-01-10T17:25:02.318Z,81.15
2024-01-10T17:27:29.417Z,80.83
2024-01-10T17:29:56.780Z,80.88
2024-01-10T17:32:23.970Z,81.22
2024-01-10T17:34:50.978Z,80.91
2024-01-10T17:37:18.055Z,80.73
2024-01-10T17:39:45.809Z,80.93
2024-01-10T17:42:12.802Z,81.40
2024-01-10T17:44:39.778Z,80.84
2024-01-10T17:47:07.356Z,80.97
2024-01-10T17:49:34.440Z,80.12
2024-01-10T17:52:01.568Z,79.89
2024-01-10T17:54:28.587Z,80.85
2024-01-10T17:56:55.699Z,79.44
2024-01-10T17:59:22.653Z,80.28
2024-01-10T18:01:50.665Z,80.40
2024-01-10T18:04:17.649Z,80.02
2024-01-10T18:06:44.625Z,80.11
2024-01-10T18:09:11.659Z,80.42
2024-01-10T18:11:38.527Z,79.28
2024-01-10T18:14:05.579Z,80.50
2024-01-10T18:16:32.797Z,80.19
2024-01-10T18:18:59.933Z,80.75
2024-01-10T18:21:27.255Z,79.98
2024-01-10T18:23:54.317Z,80.00
2024-01-10T18:26:21.274Z,80.37
2024-01-10T18:28:48.815Z,80.70
2024-01-10T18:31:15.861Z,80.66
2024-01-10T18:33:43.118Z,80.26
2024-01-10T18:36:10.264Z,80.41
2024-01-10T18:38:37.335Z,79.88
2024-01-10T18:41:04.438Z,80.35
2024-01-10T18:43:31.553Z,80.82
2024-01-10T18:45:58.431Z,80.16
2024-01-10T18:48:25.430Z,80.43
2024-01-10T18:50:52.594Z,80.21
2024-01-10T18:53:19.579Z,80.09
2024-01-10T18:55:46.939Z,80.79
2024-01-10T18:58:14.746Z,80.05
2024-01-10T19:00:41.955Z,80.77
2024-01-10T19:03:08.888Z,80.69
2024-01-10T19:05:36.317Z,81.02
2024-01-10T19:08:03.570Z,80.17
2024-01-10T19:10:31.445Z,81.35
2024-01-10T19:12:58.441Z,82.38
2024-01-10T19:15:25.472Z,82.24
2024-01-10T19:17:53.012Z,82.59
2024-01-10T19:20:20.461Z,81.81
2024-01-10T19:22:47.478Z,82.33
2024-01-10T19:25:15.029Z,82.40
2024-01-10T19:27:42.042Z,82.41
2024-01-10T19:30:09.582Z,82.67
2024-01-10T19:32:37.110Z,82.88
2024-01-10T19:35:05.026Z,82.77
2024-01-10T19:37:32.054Z,83.41
2024-01-10T19:39:59.169Z,83.25
2024-01-10T19:42:28.310Z,83.29
2024-01-10T19:44:56.626Z,82.79
2024-01-10T19:47:23.882Z,83.33
2024-01-10T19:49:51.114Z,83.08
2024-01-10T19:52:18.957Z,82.98
2024-01-10T19:54:46.111Z,83.45
2024-01-10T19:57:13.240Z,83.16
2024-01-10T19:59:40.352Z,83.39
2024-01-10T20:02:08.119Z,83.10
2024-01-10T20:04:35.090Z,83.15
2024-01-10T20:07:03.005Z,83.53
2024-01-10T20:09:30.287Z,83.33
2024-01-10T20:11:57.422Z,83.60
2024-01-10T20:14:24.946Z,83.48
2024-01-10T20:16:52.065Z,82.88
2024-01-10T20:19:19.432Z,83.30
2024-01-10T20:21:46.445Z,82.95
2024-01-10T20:24:13.789Z,82.56
2024-01-10T20:26:41.194Z,83.29
2024-01-10T20:29:08.316Z,83.15
2024-01-10T20:31:35.450Z,83.38
2024-01-10T20:34:02.776Z,83.30
2024-01-10T20:36:30.564Z,83.15
2024-01-10T20:38:59.780Z,83.19
2024-01-10T20:41:26.849Z,83.24
2024-01-10T20:43:54.180Z,83.04
2024-01-10T20:46:21.238Z,83.42
2024-01-10T20:48:48.243Z,83.44
2024-01-10T20:51:15.218Z,83.56
2024-01-10T20:53:43.013Z,83.27
2024-01-10T20:56:10.045Z,83.08
2024-01-10T20:58:37.057Z,83.37
2024-01-10T21:01:05.541Z,83.62
2024-01-10T21:03:33.808Z,84.15
2024-01-10T21:06:01.005Z,84.24
2024-01-10T21:08:28.143Z,84.16
2024-01-10T21:10:55.218Z,83.85
2024-01-10T21:13:22.230Z,83.60
2024-01-10T21:15:49.213Z,83.41
2024-01-10T21:18:16.290Z,83.78
2024-01-10T21:20:43.459Z,83.29
2024-01-10T21:23:10.498Z,83.08
2024-01-10T21:25:37.558Z,83.15
2024-01-10T21:28:08.983Z,83.16
2024-01-10T21:30:36.820Z,83.45
2024-01-10T21:33:04.405Z,83.63
2024-01-10T21:35:31.871Z,83.29
2024-01-10T21:37:58.914Z,83.54
2024-01-10T21:40:26.034Z,83.22
2024-01-10T21:42:53.249Z,83.03
2024-01-10T21:45:20.160Z,82.77
2024-01-10T21:47:47.330Z,82.93
2024-01-10T21:50:14.580Z,83.10
2024-01-10T21:52:41.617Z,82.71
2024-01-10T21:55:09.444Z,82.94
2024-01-10T21:57:36.465Z,83.15
2024-01-10T22:00:04.373Z,83.19
2024-01-10T22:02:34.285Z,82.96
2024-01-10T22:05:01.586Z,83.12
2024-01-10T22:07:28.803Z,82.41
2024-01-10T22:09:55.857Z,82.99
2024-01-10T22:12:22.805Z,83.58
2024-01-10T22:14:49.811Z,83.49
2024-01-10T22:17:16.748Z,83.43
2024-01-10T22:19:43.808Z,83.78
2024-01-10T22:22:10.809Z,83.67
2024-01-10T22:24:37.889Z,84.13
2024-01-10T22:27:05.565Z,83.96
2024-01-10T22:29:32.897Z,84.05
2024-01-10T22:32:00.024Z,84.37
2024-01-10T22:34:28.970Z,83.99
2024-01-10T22:36:56.085Z,84.08
2024-01-10T22:39:23.153Z,83.85
2024-01-10T22:41:51.353Z,84.03
2024-01-10T22:44:18.504Z,84.35
2024-01-10T22:46:45.717Z,83.77
2024-01-10T22:49:12.993Z,84.24
2024-01-10T22:51:40.081Z,84.88
2024-01-10T22:54:07.348Z,85.03
2024-01-10T22:56:34.506Z,84.94
2024-01-10T22:59:01.514Z,84.76
2024-01-10T23:01:28.588Z,84.72
2024-01-10T23:03:55.731Z,85.35
2024-01-10T23:06:22.717Z,85.39
2024-01-10T23:08:49.967Z,84.48
2024-01-10T23:11:17.037Z,84.74
2024-01-10T23:13:44.059Z,84.42
2024-01-10T23:16:10.922Z,84.09
2024-01-10T23:18:38.191Z,84.61
2024-01-10T23:21:06.592Z,84.51
2024-01-10T23:23:34.675Z,85.79
2024-01-10T23:26:07.539Z,85.86
2024-01-10T23:28:35.920Z,85.50
2024-01-10T23:31:02.953Z,84.85
2024-01-10T23:33:30.099Z,85.13
2024-01-10T23:35:57.297Z,84.58
2024-01-10T23:38:24.328Z,84.60
2024-01-10T23:40:51.450Z,85.31
2024-01-10T23:43:26.135Z,84.87
2024-01-10T23:45:55.591Z,84.07
2024-01-10T23:48:23.738Z,85.11
2024-01-10T23:50:51.032Z,84.64
2024-01-10T23:53:18.160Z,85.67
2024-01-10T23:55:45.260Z,85.40
2024-01-10T23:58:12.434Z,84.96
